• Join FlightAware (Why Join?)
  • Login
  • US Flag 
09:02PM EDT


 

Airport Tracker/Info


-or-


 

Live Flight TrackerFlight Track Log ✈ CPA80 ✈ 26-Apr-2013 ✈ PANC - KORD

Flight Track Log - Related Links

Times and Time Zones

All times are in EDT time to prevent confusion due to time zone crossing. See the CPA80 flight status page for this flight to view local times or setup timezone preferences in your user account.

Time Position Orientation Groundspeed Altitude Reporting Facility
EDT Latitude Longitude Course Direction KTS MPH feet Rate Location/Type
03:54PM 61.3000 -149.9167 84° East 290 334 6,200  Level Anchorage Center
03:55PM 61.2833 -149.7500 102° East 290 334 8,500 2,100 Climbing Anchorage Center
03:56PM 61.2500 -149.5833 113° Southeast 290 334 10,500 1,380 Climbing Anchorage Center
03:57PM 61.0167 -148.3169 90° East  Level FlightAware Approximate
03:57PM 61.2500 -149.4000 90° East 330 380 11,300  Level Anchorage Center
03:58PM 61.0167 -148.0239 90° East  Level FlightAware Approximate
03:58PM 61.2500 -149.2167 90° East 360 414 12,300  Level Anchorage Center
03:59PM 61.0252 -147.7318 84° East  Level FlightAware Approximate
03:59PM 61.2500 -149.0000 90° East 390 449 14,200  Level Anchorage Center
04:00PM 61.2500 -148.7667 90° East 390 449 16,000 1,980 Climbing Anchorage Center
04:01PM 61.2500 -148.5333 90° East 410 472 18,200 1,800 Climbing Anchorage Center
04:02PM 61.2333 -148.2833 98° East 430 495 19,700 1,560 Climbing Anchorage Center
04:03PM 61.2333 -148.0333 90° East 440 506 21,400 1,740 Climbing Anchorage Center
04:04PM 61.2333 -147.7667 90° East 450 518 23,200 1,680 Climbing Anchorage Center
04:05PM 61.2333 -147.4667 90° East 460 529 24,800 1,200 Climbing Anchorage Center
04:06PM 61.2333 -147.2167 90° East 460 529 25,700 1,200 Climbing Anchorage Center
04:07PM 61.2167 -146.9500 97° East 470 541 27,200 1,200 Climbing Anchorage Center
04:08PM 61.2167 -146.6667 90° East 480 552 28,100 960 Climbing Anchorage Center
04:09PM 61.2000 -146.3833 97° East 490 564 29,200 1,380 Climbing Anchorage Center
04:10PM 61.2000 -146.1000 90° East 500 575 30,900 1,560 Climbing Anchorage Center
04:11PM 61.1833 -145.8000 96° East 490 564 32,400 1,020 Climbing Anchorage Center
04:12PM 61.1833 -145.5167 90° East 500 575 33,000 240 Climbing Anchorage Center
04:13PM 61.1667 -145.2167 96° East 500 575 33,000  Level Anchorage Center
04:14PM 61.1500 -144.9333 97° East 490 564 33,000  Level Anchorage Center
04:15PM 61.1500 -144.6500 90° East 500 575 33,000  Level Anchorage Center
04:16PM 61.1333 -144.3500 96° East 500 575 33,000  Level Anchorage Center
04:17PM 61.1167 -144.0667 97° East 500 575 33,000  Level Anchorage Center
04:18PM 61.1167 -143.7667 90° East 500 575 33,000  Level Anchorage Center
04:19PM 61.1000 -143.4833 97° East 500 575 33,000  Level Anchorage Center
04:20PM 61.0833 -143.2000 97° East 500 575 33,000  Level Anchorage Center
04:21PM 61.0667 -142.8833 96° East 490 564 33,000  Level Anchorage Center
04:22PM 61.0500 -142.6000 97° East 490 564 33,000  Level Anchorage Center
04:23PM 61.0333 -142.3167 97° East 500 575 33,000  Level Anchorage Center
04:24PM 61.0167 -142.0667 98° East 490 564 33,000  Level Anchorage Center
04:25PM 61.0000 -141.8167 98° East 490 564 33,000  Level Anchorage Center
04:26PM 60.9833 -141.5333 97° East 490 564 33,000  Level Anchorage Center
04:27PM 60.9667 -141.2500 97° East 490 564 33,000  Level Anchorage Center
04:28PM 60.9500 -140.9667 97° East 490 564 33,000  Level Anchorage Center
04:29PM 60.9333 -140.6833 97° East 490 564 33,000  Level Anchorage Center
04:30PM 60.9333 -140.4167 90° East 480 552 33,000  Level Anchorage Center
04:31PM 60.9167 -140.1500 97° East 470 541 33,000  Level Anchorage Center
04:33PM 60.8996 -139.7576 95° East  Level FlightAware Approximate
04:40PM 60.7957 -137.7298 95° East  Level FlightAware Approximate
04:41PM 60.7784 -137.4412 97° East  Level FlightAware Approximate
04:42PM 60.7604 -137.1530 97° East  Level FlightAware Approximate
04:43PM 60.7419 -136.8651 97° East  Level FlightAware Approximate
04:44PM 60.7227 -136.5775 98° East  Level FlightAware Approximate
04:45PM 60.7029 -136.2903 98° East  Level FlightAware Approximate
04:46PM 60.6825 -136.0034 98° East  Level FlightAware Approximate
04:47PM 60.6615 -135.7169 98° East  Level FlightAware Approximate
04:48PM 60.6398 -135.4308 99° East  Level FlightAware Approximate
04:49PM 60.6176 -135.1451 99° East  Level FlightAware Approximate
04:50PM 60.6048 -134.8572 95° East  Level FlightAware Approximate
04:51PM 60.5918 -134.5694 95° East  Level FlightAware Approximate
04:52PM 60.5782 -134.2818 95° East  Level FlightAware Approximate
04:53PM 60.5639 -133.9945 96° East  Level FlightAware Approximate
04:54PM 60.5490 -133.7074 96° East  Level FlightAware Approximate
04:55PM 60.5336 -133.4206 96° East  Level FlightAware Approximate
04:56PM 60.5175 -133.1341 96° East  Level FlightAware Approximate
04:57PM 60.5008 -132.8479 97° East  Level FlightAware Approximate
04:58PM 60.4835 -132.5619 97° East  Level FlightAware Approximate
04:59PM 60.4656 -132.2763 97° East  Level FlightAware Approximate
05:00PM 60.4470 -131.9910 97° East  Level FlightAware Approximate
05:01PM 60.4279 -131.7061 98° East  Level FlightAware Approximate
05:02PM 60.4081 -131.4214 98° East  Level FlightAware Approximate
05:03PM 60.3878 -131.1372 98° East  Level FlightAware Approximate
05:04PM 60.3668 -130.8533 98° East  Level FlightAware Approximate
05:05PM 60.3452 -130.5697 99° East  Level FlightAware Approximate
05:06PM 60.3231 -130.2866 99° East  Level FlightAware Approximate
05:07PM 60.3003 -130.0038 99° East  Level FlightAware Approximate
05:08PM 60.2775 -129.7213 99° East  Level FlightAware Approximate
05:09PM 60.2540 -129.4391 99° East  Level FlightAware Approximate
05:10PM 60.2299 -129.1574 100° East  Level FlightAware Approximate
05:11PM 60.2053 -128.8760 100° East  Level FlightAware Approximate
05:12PM 60.1801 -128.5952 100° East  Level FlightAware Approximate
05:13PM 60.1542 -128.3147 100° East  Level FlightAware Approximate
05:14PM 60.1278 -128.0347 101° East  Level FlightAware Approximate
05:15PM 60.1008 -127.7551 101° East  Level FlightAware Approximate
05:16PM 60.0732 -127.4760 101° East  Level FlightAware Approximate
05:17PM 60.0450 -127.1974 101° East  Level FlightAware Approximate
05:18PM 60.0162 -126.9193 102° East  Level FlightAware Approximate
05:19PM 59.9869 -126.6416 102° East  Level FlightAware Approximate
05:20PM 59.9569 -126.3645 102° East  Level FlightAware Approximate
05:21PM 59.9262 -126.0879 103° East  Level FlightAware Approximate
05:22PM 59.8942 -125.8121 103° East  Level FlightAware Approximate
05:23PM 59.8617 -125.5369 103° East  Level FlightAware Approximate
05:24PM 59.8285 -125.2623 103° East  Level FlightAware Approximate
05:25PM 59.7948 -124.9882 104° East  Level FlightAware Approximate
05:26PM 59.7606 -124.7147 104° East  Level FlightAware Approximate
05:27PM 59.7257 -124.4417 104° East  Level FlightAware Approximate
05:28PM 59.6903 -124.1693 104° East  Level FlightAware Approximate
05:29PM 59.6544 -123.8974 105° East  Level FlightAware Approximate
05:30PM 59.6179 -123.6262 105° East  Level FlightAware Approximate
05:31PM 59.5808 -123.3556 105° East  Level FlightAware Approximate
05:32PM 59.5431 -123.0855 105° East  Level FlightAware Approximate
05:33PM 59.5049 -122.8161 106° East  Level FlightAware Approximate
05:34PM 59.4662 -122.5472 106° East  Level FlightAware Approximate
05:35PM 59.4269 -122.2790 106° East  Level FlightAware Approximate
05:36PM 59.3870 -122.0115 106° East  Level FlightAware Approximate
05:37PM 59.3466 -121.7445 106° East  Level FlightAware Approximate
05:38PM 59.3057 -121.4782 107° East  Level FlightAware Approximate
05:39PM 59.2642 -121.2125 107° East  Level FlightAware Approximate
05:40PM 59.2222 -120.9475 107° East  Level FlightAware Approximate
05:41PM 59.1796 -120.6832 107° East  Level FlightAware Approximate
05:42PM 59.1366 -120.4195 108° East  Level FlightAware Approximate
05:43PM 59.0929 -120.1564 108° East  Level FlightAware Approximate
05:44PM 59.0493 -119.8938 108° East  Level FlightAware Approximate
05:45PM 59.0058 -119.6313 108° East  Level FlightAware Approximate
05:46PM 58.9618 -119.3695 108° East  Level FlightAware Approximate
05:47PM 58.9173 -119.1084 108° East  Level FlightAware Approximate
05:48PM 58.8723 -118.8479 108° East  Level FlightAware Approximate
05:49PM 58.8267 -118.5882 109° East  Level FlightAware Approximate
05:50PM 58.7806 -118.3291 109° East  Level FlightAware Approximate
05:51PM 58.7340 -118.0707 109° East  Level FlightAware Approximate
05:51PM 58.7333 -118.1333 105° East 520 598 35,000  Level Edmonton Center
05:52PM 58.6869 -117.8130 109° East  Level FlightAware Approximate
05:52PM 58.6833 -117.8833 111° Southeast 500 575 35,000  Level Edmonton Center
05:53PM 58.6393 -117.5560 110° East  Level FlightAware Approximate
05:53PM 58.6167 -117.6333 117° Southeast 510 587 35,000  Level Edmonton Center
05:54PM 58.5911 -117.2997 110° East  Level FlightAware Approximate
05:54PM 58.5833 -117.3500 103° East 510 587 35,000  Level Edmonton Center
05:55PM 58.5444 -117.0429 105° East  Level FlightAware Approximate
05:55PM 58.5333 -117.1000 111° Southeast 510 587 35,000  Level Edmonton Center
05:56PM 58.5077 -116.7804 105° East  Level FlightAware Approximate
05:56PM 58.5000 -116.8333 103° East 520 598 35,000  Level Edmonton Center
05:57PM 58.4667 -116.5833 104° East 510 587 35,000  Level Edmonton Center
05:58PM 58.4167 -116.2833 108° East 520 598 35,000  Level Edmonton Center
05:59PM 58.4000 -116.0333 97° East 520 598 35,000  Level Edmonton Center
06:00PM 58.3500 -115.7667 110° East 520 598 35,000  Level Edmonton Center
06:01PM 58.3167 -115.5000 103° East 510 587 35,000  Level Edmonton Center
06:02PM 58.2667 -115.2167 108° East 520 598 35,000  Level Edmonton Center
06:03PM 58.2333 -114.9500 103° East 520 598 35,000  Level Edmonton Center
06:04PM 58.2000 -114.6833 103° East 520 598 35,000  Level Edmonton Center
06:05PM 58.1500 -114.4333 111° Southeast 510 587 35,000  Level Edmonton Center
06:06PM 58.1167 -114.1667 103° East 520 598 35,000  Level Edmonton Center
06:07PM 58.0667 -113.9000 109° East 510 587 35,000  Level Edmonton Center
06:08PM 58.0167 -113.6667 112° Southeast 520 598 35,000  Level Edmonton Center
06:09PM 57.9833 -113.3667 102° East 520 598 35,000  Level Edmonton Center
06:10PM 57.9333 -113.1167 111° Southeast 510 587 35,000  Level Edmonton Center
06:11PM 57.9000 -112.8667 104° East 520 598 35,000  Level Edmonton Center
06:12PM 57.8500 -112.5833 108° East 520 598 35,000  Level Edmonton Center
06:13PM 57.8000 -112.3667 113° Southeast 510 587 35,000  Level Edmonton Center
06:14PM 57.7500 -112.1000 109° East 520 598 35,000  Level Edmonton Center
06:15PM 57.7000 -111.8333 109° East 520 598 35,000  Level Edmonton Center
06:16PM 57.6667 -111.5667 103° East 520 598 35,000  Level Edmonton Center
06:17PM 57.6167 -111.3000 109° East 520 598 35,000  Level Edmonton Center
06:18PM 57.5500 -111.0333 115° Southeast 520 598 35,000  Level Edmonton Center
06:19PM 57.5167 -110.7833 104° East 520 598 35,000  Level Edmonton Center
06:20PM 57.4667 -110.5167 109° East 520 598 35,000  Level Edmonton Center
06:21PM 57.4000 -110.2833 118° Southeast 520 598 35,000  Level Edmonton Center
06:22PM 57.3333 -110.0500 118° Southeast 520 598 35,000  Level Edmonton Center
06:23PM 57.2667 -109.8000 116° Southeast 510 587 35,000  Level Edmonton Center
06:24PM 57.2000 -109.5667 118° Southeast 520 598 35,000  Level Edmonton Center
06:25PM 57.1167 -109.3333 123° Southeast 520 598 35,000  Level Edmonton Center
06:26PM 57.0500 -109.1167 119° Southeast 520 598 35,000  Level Edmonton Center
06:27PM 56.9833 -108.8833 118° Southeast 520 598 35,000  Level Edmonton Center
06:28PM 56.9000 -108.6333 121° Southeast 520 598 35,000  Level Edmonton Center
06:29PM 56.8333 -108.4000 117° Southeast 530 610 35,000  Level Edmonton Center
06:30PM 56.7667 -108.1500 116° Southeast 530 610 35,000  Level Edmonton Center
06:31PM 56.6833 -107.9333 125° Southeast 530 610 35,000  Level Edmonton Center
06:32PM 56.6167 -107.7000 117° Southeast 530 610 35,000  Level Edmonton Center
06:33PM 56.5333 -107.4500 121° Southeast 530 610 35,000  Level Edmonton Center
06:34PM 56.4667 -107.2000 116° Southeast 530 610 35,000  Level Edmonton Center
06:35PM 56.4000 -106.9833 119° Southeast 530 610 35,000  Level Edmonton Center
06:36PM 56.3000 -106.7333 126° Southeast 530 610 35,000  Level Edmonton Center
06:37PM 56.2333 -106.5167 119° Southeast 530 610 35,000  Level Edmonton Center
06:38PM 56.1500 -106.2667 121° Southeast 540 621 35,000  Level Edmonton Center
06:39PM 56.0833 -106.1000 126° Southeast 540 621 35,000  Level Winnipeg Center
06:40PM 56.0000 -105.8667 122° Southeast 550 633 35,000  Level Winnipeg Center
06:41PM 55.9000 -105.6333 127° Southeast 540 621 35,000  Level Winnipeg Center
06:42PM 55.8167 -105.4333 127° Southeast 550 633 35,000  Level Winnipeg Center
06:43PM 55.7333 -105.2000 122° Southeast 550 633 35,000  Level Winnipeg Center
06:44PM 55.6500 -104.9833 124° Southeast 550 633 35,000  Level Winnipeg Center
06:45PM 55.5667 -104.7500 122° Southeast 550 633 35,000  Level Winnipeg Center
06:46PM 55.4667 -104.5333 129° Southeast 550 633 35,000  Level Winnipeg Center
06:47PM 55.3833 -104.3000 122° Southeast 550 633 35,000  Level Winnipeg Center
06:48PM 55.2833 -104.0833 129° Southeast 550 633 35,000  Level Winnipeg Center
06:49PM 55.2000 -103.8833 126° Southeast 560 644 35,000  Level Winnipeg Center
06:50PM 55.1000 -103.6333 125° Southeast 560 644 35,000  Level Winnipeg Center
06:51PM 55.0167 -103.4167 124° Southeast 560 644 35,000  Level Winnipeg Center
06:52PM 54.9167 -103.2333 133° Southeast 560 644 35,000  Level Winnipeg Center
06:53PM 54.8167 -103.0167 129° Southeast 560 644 35,000  Level Winnipeg Center
06:54PM 54.7333 -102.8000 124° Southeast 560 644 35,000  Level Winnipeg Center
06:55PM 54.6333 -102.5833 129° Southeast 560 644 35,000  Level Winnipeg Center
06:56PM 54.5500 -102.3667 123° Southeast 560 644 35,000  Level Winnipeg Center
06:57PM 54.4333 -102.1500 133° Southeast 560 644 35,000  Level Winnipeg Center
06:58PM 54.3500 -101.9333 123° Southeast 560 644 35,000  Level Winnipeg Center
06:59PM 54.2500 -101.7500 133° Southeast 560 644 35,000  Level Winnipeg Center
07:00PM 54.1667 -101.5333 123° Southeast 550 633 35,000  Level Winnipeg Center
07:01PM 54.0667 -101.3333 130° Southeast 550 633 35,000  Level Winnipeg Center
07:02PM 53.9667 -101.1167 128° Southeast 550 633 35,000  Level Winnipeg Center
07:03PM 53.8500 -100.9667 143° Southeast 540 621 35,000  Level Winnipeg Center
07:04PM 53.7167 -100.8333 149° Southeast 550 633 35,000  Level Winnipeg Center
07:05PM 53.5833 -100.7167 153° Southeast 520 598 35,000  Level Winnipeg Center
07:06PM 53.4667 -100.6000 149° Southeast 520 598 35,000  Level Winnipeg Center
07:07PM 53.3500 -100.4500 142° Southeast 530 610 35,000  Level Winnipeg Center
07:08PM 53.2333 -100.3167 146° Southeast 520 598 35,000  Level Winnipeg Center
07:09PM 53.1000 -100.2000 152° Southeast 530 610 35,000  Level Winnipeg Center
07:10PM 52.9667 -100.0833 152° Southeast 520 598 35,000  Level Winnipeg Center
07:11PM 52.8333 -99.9500 149° Southeast 530 610 35,000  Level Winnipeg Center
07:12PM 52.7167 -99.8333 149° Southeast 530 610 35,000  Level Winnipeg Center
07:13PM 52.6000 -99.7000 145° Southeast 520 598 35,000  Level Winnipeg Center
07:14PM 52.4667 -99.5667 149° Southeast 520 598 35,000  Level Winnipeg Center
07:15PM 52.3500 -99.4667 152° Southeast 520 598 35,000  Level Winnipeg Center
07:16PM 52.2167 -99.3500 152° Southeast 520 598 35,000  Level Winnipeg Center
07:17PM 52.1000 -99.2000 142° Southeast 530 610 35,000  Level Winnipeg Center
07:18PM 51.9667 -99.0833 152° Southeast 530 610 35,000  Level Winnipeg Center
07:19PM 51.8500 -98.9667 148° Southeast 530 610 35,000  Level Winnipeg Center
07:20PM 51.7167 -98.8333 148° Southeast 530 610 35,000  Level Winnipeg Center
07:21PM 51.5833 -98.7167 151° Southeast 520 598 35,000  Level Winnipeg Center
07:22PM 51.4500 -98.6000 151° Southeast 520 598 35,000  Level Winnipeg Center
07:23PM 51.3500 -98.5000 148° Southeast 520 598 35,000 180 Level Winnipeg Center
07:24PM 51.2333 -98.3500 141° Southeast 520 598 35,400 720 Climbing Winnipeg Center
07:25PM 51.1000 -98.2500 155° Southeast 520 598 36,500 780 Climbing Winnipeg Center
07:26PM 50.9667 -98.1333 151° Southeast 530 610 37,000 240 Climbing Winnipeg Center
07:27PM 50.8333 -98.0000 148° Southeast 530 610 37,000  Level Winnipeg Center
07:28PM 50.7167 -97.8833 148° Southeast 530 610 37,000  Level Winnipeg Center
07:29PM 50.6000 -97.7833 151° Southeast 530 610 37,000  Level Winnipeg Center
07:30PM 50.4667 -97.6500 148° Southeast 530 610 37,000  Level Winnipeg Center
07:31PM 50.3333 -97.5500 154° Southeast 530 610 37,000  Level Winnipeg Center
07:32PM 50.2000 -97.4167 147° Southeast 530 610 37,000  Level Winnipeg Center
07:33PM 50.0833 -97.3000 147° Southeast 530 610 37,000  Level Winnipeg Center
07:34PM 49.9500 -97.2000 154° Southeast 530 610 37,000  Level Winnipeg Center
07:35PM 49.8333 -97.1000 151° Southeast 530 610 37,000  Level Winnipeg Center
07:36PM 49.7000 -96.9667 147° Southeast 530 610 37,000  Level Winnipeg Center
07:37PM 49.5667 -96.8667 154° Southeast 530 610 37,000  Level Winnipeg Center
07:38PM 49.4333 -96.7333 147° Southeast 530 610 37,000  Level Winnipeg Center
07:39PM 49.3167 -96.6333 151° Southeast 530 610 37,000  Level Winnipeg Center
07:40PM 49.1833 -96.5333 154° Southeast 530 610 37,000  Level Winnipeg Center
07:41PM 49.0333 -96.4000 150° Southeast 530 610 37,000  Level Winnipeg Center
07:42PM 48.9000 -96.3000 154° Southeast 530 610 37,000  Level Winnipeg Center
07:43PM 48.7833 -96.2000 151° Southeast 530 610 37,000  Level Winnipeg Center
07:44PM 48.6667 -96.0833 147° Southeast 530 610 37,000  Level Winnipeg Center
07:44PM 48.6222 -96.0144 134° Southeast 528 608 37,000  Level Minneapolis Center
07:45PM 48.4936 -95.8311 137° Southeast 529 609 37,000  Level Minneapolis Center
07:47PM 48.3861 -95.6800 137° Southeast 528 608 37,000  Level Minneapolis Center
07:48PM 48.2797 -95.5319 137° Southeast 526 605 37,000  Level Minneapolis Center
07:49PM 48.1669 -95.3769 137° Southeast 526 605 37,000  Level Minneapolis Center
07:50PM 48.0583 -95.2311 138° Southeast 526 605 37,000  Level Minneapolis Center
07:51PM 47.9511 -95.0842 137° Southeast 525 604 37,000  Level Minneapolis Center
07:52PM 47.8444 -94.9383 137° Southeast 524 603 37,000  Level Minneapolis Center
07:53PM 47.7367 -94.7933 138° Southeast 524 603 37,000  Level Minneapolis Center
07:54PM 47.6072 -94.6206 138° Southeast 524 603 37,000  Level Minneapolis Center
07:55PM 47.5003 -94.4769 138° Southeast 522 601 37,000  Level Minneapolis Center
07:56PM 47.3942 -94.3336 138° Southeast 521 600 37,000  Level Minneapolis Center
07:57PM 47.2883 -94.1925 138° Southeast 519 597 37,000  Level Minneapolis Center
07:58PM 47.1819 -94.0553 139° Southeast 516 594 37,000  Level Minneapolis Center
07:59PM 47.0547 -93.8894 138° Southeast 514 592 37,000  Level Minneapolis Center
08:00PM 46.9486 -93.7533 139° Southeast 513 590 37,000  Level Minneapolis Center
08:01PM 46.8431 -93.6175 139° Southeast 512 589 37,000  Level Minneapolis Center
08:02PM 46.7372 -93.4844 139° Southeast 509 586 37,000  Level Minneapolis Center
08:03PM 46.6308 -93.3519 139° Southeast 507 583 37,000  Level Minneapolis Center
08:04PM 46.5031 -93.1928 139° Southeast 507 583 37,000  Level Minneapolis Center
08:05PM 46.3975 -93.0586 139° Southeast 507 583 37,000  Level Minneapolis Center
08:06PM 46.2903 -92.9283 140° Southeast 506 582 37,000  Level Minneapolis Center
08:07PM 46.1747 -92.7817 139° Southeast 509 586 37,000  Level Minneapolis Center
08:08PM 46.0664 -92.6522 140° Southeast 508 585 37,000  Level Minneapolis Center
08:09PM 45.9581 -92.5206 140° Southeast 510 587 37,000  Level Minneapolis Center
08:10PM 45.8497 -92.3908 140° Southeast 508 585 37,000  Level Minneapolis Center
08:11PM 45.7422 -92.2608 140° Southeast 507 583 37,000  Level Minneapolis Center
08:12PM 45.6122 -92.1047 140° Southeast 508 585 37,000  Level Minneapolis Center
08:13PM 45.5028 -91.9758 140° Southeast 510 587 37,000  Level Minneapolis Center
08:14PM 45.3967 -91.8497 140° Southeast 502 578 37,000  Level Minneapolis Center
08:15PM 45.2858 -91.7211 141° Southeast 508 585 37,000  Level Minneapolis Center
08:16PM 45.1767 -91.5928 140° Southeast 508 585 37,000  Level Minneapolis Center
08:18PM 45.0492 -91.4469 141° Southeast 514 592 37,000 -540 Level Minneapolis Center
08:19PM 44.9358 -91.3161 141° Southeast 506 582 35,900 -1,140 Descending Minneapolis Center
08:20PM 44.8250 -91.1911 141° Southeast 504 580 34,700 -840 Descending Minneapolis Center
08:21PM 44.7183 -91.0686 141° Southeast 500 575 34,200 -540 Descending Minneapolis Center
08:22PM 44.6114 -90.9458 141° Southeast 499 574 33,700 -540 Descending Minneapolis Center
08:23PM 44.4892 -90.8086 141° Southeast 498 573 33,200 -540 Descending Minneapolis Center
08:24PM 44.3819 -90.6878 141° Southeast 495 570 32,600 -660 Descending Minneapolis Center
08:25PM 44.2722 -90.5658 141° Southeast 489 563 31,900 -600 Descending Minneapolis Center
08:26PM 44.1700 -90.4517 141° Southeast 488 562 31,400 -480 Descending Minneapolis Center
08:27PM 44.0658 -90.3361 141° Southeast 482 555 31,000 -360 Descending Minneapolis Center
08:28PM 43.9622 -90.2217 141° Southeast 476 548 30,700 -480 Descending Minneapolis Center
08:29PM 43.8419 -90.0900 142° Southeast 474 545 30,100 -540 Descending Minneapolis Center
08:30PM 43.7364 -89.9761 142° Southeast 480 552 29,700 -1,140 Descending Minneapolis Center
08:31PM 43.6317 -89.8608 141° Southeast 480 552 27,800 -2,100 Descending Minneapolis Center
08:32PM 43.5278 -89.7500 142° Southeast 478 550 25,400 -1,380 Descending Minneapolis Center
08:33PM 43.4269 -89.6406 142° Southeast 469 540 25,000 -600 Descending Minneapolis Center
08:34PM 43.3094 -89.5161 142° Southeast 461 531 24,200 -1,860 Descending Minneapolis Center
08:35PM 43.2117 -89.4103 142° Southeast 454 522 21,200 -2,640 Descending Minneapolis Center
08:36PM 43.1147 -89.3325 150° Southeast 420 483 18,800 -2,100 Descending Minneapolis Center
08:37PM 42.9953 -89.2800 162° South 385 443 16,800 -1,860 Descending Chicago Center
08:38PM 42.8972 -89.2381 163° South 373 429 14,900 -1,800 Descending Chicago Center
08:39PM 42.8028 -89.2022 164° South 357 411 13,100 -1,020 Descending Chicago Center
08:40PM 42.7125 -89.1675 164° South 339 390 12,800 -480 Descending Chicago Center
08:41PM 42.6244 -89.2133 201° Southwest 297 342 12,200 -540 Descending Chicago Center
08:42PM 42.5422 -89.2142 180° South 305 351 11,700 -540 Descending Chicago Center
08:43PM 42.5158 -89.1106 109° East 304 350 11,200 -360 Descending Chicago Center
08:44PM 42.5233 -88.9969 85° East 304 350 11,000 -120 Descending Chicago Center
08:46PM 42.5539 -88.8908 69° East 301 346 11,000 -300 Level Chicago Center
08:47PM 42.5825 -88.7828 70° East 303 349 10,400 -780 Descending Chicago Center
08:48PM 42.5578 -88.6669 106° East 301 346 9,400 -720 Descending Chicago Center
08:49PM 42.4894 -88.6086 148° Southeast 292 336 9,000 -240 Descending Chicago Center
08:50PM 42.4236 -88.5469 145° Southeast 290 334 9,000 -180 Level Chicago Center
08:51PM 42.3619 -88.4769 140° Southeast 290 334 8,700 -780 Descending Chicago Center
08:52PM 42.3186 -88.3867 123° Southeast 283 326 7,500 -1,080 Descending Chicago Center
08:53PM 42.2786 -88.3000 122° Southeast 278 320 6,500 -1,140 Descending Chicago Center
08:54PM 42.2281 -88.1986 124° Southeast 274 315 5,200 -1,200 Descending Chicago Center
08:55PM 42.1736 -88.1422 142° Southeast 252 290 4,100 -600 Descending Chicago Center
08:56PM 42.1289 -88.0889 139° Southeast 226 260 4,000 -480 Descending Chicago Center
08:57PM 42.0833 -88.0333 138° Southeast 178 205 3,200 -900 Descending Chicago TRACON
08:58PM 42.0500 -88.0000 143° Southeast 160 184 2,300 -900 Descending Chicago TRACON
08:59PM 42.0167 -87.9667 143° Southeast 150 173 1,500 -840 Descending Chicago TRACON
09:01PM 41.9817 -87.9067 180° South  Level Estimated